sensor_id;sensor_type;location;lat;lon;timestamp;P1;durP1;ratioP1;P2;durP2;ratioP2
72891;SDS011;61032;50.782;6.818;2023-02-01T00:00:42;8.45;;;4.32;;
72891;SDS011;61032;50.782;6.818;2023-02-01T00:01:42;11.77;;;4.15;;
72891;SDS011;61032;50.782;6.818;2023-02-01T00:02:42;11.48;;;4.40;;
72891;SDS011;61032;50.782;6.818;2023-02-01T00:03:43;8.85;;;5.35;;
72891;SDS011;61032;50.782;6.818;2023-02-01T00:04:43;11.65;;;4.53;;
72891;SDS011;61032;50.782;6.818;2023-02-01T00:05:44;11.68;;;4.97;;
72891;SDS011;61032;50.782;6.818;2023-02-01T00:06:44;6.97;;;4.03;;
72891;SDS011;61032;50.782;6.818;2023-02-01T00:07:46;9.65;;;3.75;;
72891;SDS011;61032;50.782;6.818;2023-02-01T00:08:48;11.77;;;4.60;;
72891;SDS011;61032;50.782;6.818;2023-02-01T00:09:52;10.85;;;4.03;;
72891;SDS011;61032;50.782;6.818;2023-02-01T00:11:02;9.73;;;3.63;;
72891;SDS011;61032;50.782;6.818;2023-02-01T00:12:04;7.57;;;4.05;;
72891;SDS011;61032;50.782;6.818;2023-02-01T00:13:04;9.30;;;3.78;;
72891;SDS011;61032;50.782;6.818;2023-02-01T00:14:05;10.68;;;3.70;;
72891;SDS011;61032;50.782;6.818;2023-02-01T00:15:05;11.35;;;3.75;;
72891;SDS011;61032;50.782;6.818;2023-02-01T00:16:10;7.53;;;3.60;;
72891;SDS011;61032;50.782;6.818;2023-02-01T00:17:13;14.57;;;4.50;;
72891;SDS011;61032;50.782;6.818;2023-02-01T00:18:13;10.15;;;3.53;;
72891;SDS011;61032;50.782;6.818;2023-02-01T00:19:17;11.20;;;4.50;;
72891;SDS011;61032;50.782;6.818;2023-02-01T00:20:18;8.50;;;3.83;;
72891;SDS011;61032;50.782;6.818;2023-02-01T00:21:19;13.02;;;3.45;;
72891;SDS011;61032;50.782;6.818;2023-02-01T00:22:20;9.00;;;3.53;;
72891;SDS011;61032;50.782;6.818;2023-02-01T00:23:20;7.15;;;4.22;;
72891;SDS011;61032;50.782;6.818;2023-02-01T00:24:21;8.13;;;3.45;;
72891;SDS011;61032;50.782;6.818;2023-02-01T00:25:21;8.75;;;3.78;;
72891;SDS011;61032;50.782;6.818;2023-02-01T00:27:27;8.02;;;3.10;;
72891;SDS011;61032;50.782;6.818;2023-02-01T00:28:28;10.38;;;3.35;;
72891;SDS011;61032;50.782;6.818;2023-02-01T00:29:28;11.57;;;2.95;;
72891;SDS011;61032;50.782;6.818;2023-02-01T00:30:28;10.63;;;3.22;;
72891;SDS011;61032;50.782;6.818;2023-02-01T00:31:29;8.88;;;2.92;;
72891;SDS011;61032;50.782;6.818;2023-02-01T00:32:29;9.13;;;2.60;;
72891;SDS011;61032;50.782;6.818;2023-02-01T00:33:32;7.80;;;2.83;;
72891;SDS011;61032;50.782;6.818;2023-02-01T00:34:33;5.15;;;2.65;;
72891;SDS011;61032;50.782;6.818;2023-02-01T00:35:34;10.38;;;2.60;;
72891;SDS011;61032;50.782;6.818;2023-02-01T00:36:35;9.80;;;2.63;;
72891;SDS011;61032;50.782;6.818;2023-02-01T00:37:35;9.38;;;2.97;;
72891;SDS011;61032;50.782;6.818;2023-02-01T00:38:38;11.75;;;2.50;;
72891;SDS011;61032;50.782;6.818;2023-02-01T00:39:39;6.05;;;2.15;;
72891;SDS011;61032;50.782;6.818;2023-02-01T00:40:47;9.90;;;2.85;;
72891;SDS011;61032;50.782;6.818;2023-02-01T00:41:47;9.15;;;2.50;;
72891;SDS011;61032;50.782;6.818;2023-02-01T00:42:48;7.30;;;1.80;;
72891;SDS011;61032;50.782;6.818;2023-02-01T00:43:49;8.13;;;1.92;;
72891;SDS011;61032;50.782;6.818;2023-02-01T00:44:54;8.38;;;1.73;;
72891;SDS011;61032;50.782;6.818;2023-02-01T00:45:54;6.75;;;1.98;;
72891;SDS011;61032;50.782;6.818;2023-02-01T00:46:54;6.72;;;3.03;;
72891;SDS011;61032;50.782;6.818;2023-02-01T00:47:56;6.30;;;2.38;;
72891;SDS011;61032;50.782;6.818;2023-02-01T00:48:58;10.45;;;2.83;;
72891;SDS011;61032;50.782;6.818;2023-02-01T00:50:00;6.90;;;1.88;;
72891;SDS011;61032;50.782;6.818;2023-02-01T00:51:04;6.57;;;2.90;;
72891;SDS011;61032;50.782;6.818;2023-02-01T00:52:07;6.95;;;2.20;;
72891;SDS011;61032;50.782;6.818;2023-02-01T00:53:08;8.10;;;2.20;;
72891;SDS011;61032;50.782;6.818;2023-02-01T00:54:09;6.43;;;2.35;;
72891;SDS011;61032;50.782;6.818;2023-02-01T00:55:12;4.18;;;1.95;;
72891;SDS011;61032;50.782;6.818;2023-02-01T00:56:16;5.47;;;1.90;;
72891;SDS011;61032;50.782;6.818;2023-02-01T00:57:17;9.45;;;2.15;;
72891;SDS011;61032;50.782;6.818;2023-02-01T00:58:17;7.50;;;2.03;;
72891;SDS011;61032;50.782;6.818;2023-02-01T00:59:18;11.00;;;2.38;;
72891;SDS011;61032;50.782;6.818;2023-02-01T01:00:18;7.47;;;2.42;;
72891;SDS011;61032;50.782;6.818;2023-02-01T01:01:20;6.85;;;2.53;;
72891;SDS011;61032;50.782;6.818;2023-02-01T01:02:26;7.55;;;2.55;;
72891;SDS011;61032;50.782;6.818;2023-02-01T01:03:27;13.95;;;2.90;;
72891;SDS011;61032;50.782;6.818;2023-02-01T01:05:29;7.15;;;2.22;;
72891;SDS011;61032;50.782;6.818;2023-02-01T01:06:30;5.55;;;1.83;;
72891;SDS011;61032;50.782;6.818;2023-02-01T01:07:32;7.43;;;1.83;;
72891;SDS011;61032;50.782;6.818;2023-02-01T01:08:32;9.43;;;2.88;;
72891;SDS011;61032;50.782;6.818;2023-02-01T01:09:34;9.90;;;2.30;;
72891;SDS011;61032;50.782;6.818;2023-02-01T01:10:34;6.70;;;2.20;;
72891;SDS011;61032;50.782;6.818;2023-02-01T01:11:36;5.45;;;2.25;;
72891;SDS011;61032;50.782;6.818;2023-02-01T01:12:37;6.60;;;1.70;;
72891;SDS011;61032;50.782;6.818;2023-02-01T01:13:38;9.50;;;2.38;;
72891;SDS011;61032;50.782;6.818;2023-02-01T01:14:38;8.40;;;2.15;;
72891;SDS011;61032;50.782;6.818;2023-02-01T01:15:39;6.00;;;2.25;;
72891;SDS011;61032;50.782;6.818;2023-02-01T01:16:39;5.72;;;3.03;;
72891;SDS011;61032;50.782;6.818;2023-02-01T01:17:40;7.05;;;2.40;;
72891;SDS011;61032;50.782;6.818;2023-02-01T01:18:40;11.27;;;2.88;;
72891;SDS011;61032;50.782;6.818;2023-02-01T01:19:41;7.18;;;2.72;;
72891;SDS011;61032;50.782;6.818;2023-02-01T01:20:41;8.05;;;2.13;;
72891;SDS011;61032;50.782;6.818;2023-02-01T01:21:42;11.60;;;2.45;;
72891;SDS011;61032;50.782;6.818;2023-02-01T01:22:42;14.93;;;3.10;;
72891;SDS011;61032;50.782;6.818;2023-02-01T01:23:43;7.88;;;2.38;;
72891;SDS011;61032;50.782;6.818;2023-02-01T01:25:45;13.65;;;2.90;;
72891;SDS011;61032;50.782;6.818;2023-02-01T01:26:45;9.55;;;2.60;;
72891;SDS011;61032;50.782;6.818;2023-02-01T01:27:46;7.35;;;3.10;;
72891;SDS011;61032;50.782;6.818;2023-02-01T01:28:47;5.50;;;2.35;;
72891;SDS011;61032;50.782;6.818;2023-02-01T01:29:47;12.05;;;3.88;;
72891;SDS011;61032;50.782;6.818;2023-02-01T01:30:48;6.43;;;2.95;;
72891;SDS011;61032;50.782;6.818;2023-02-01T01:31:48;6.95;;;2.95;;
72891;SDS011;61032;50.782;6.818;2023-02-01T01:32:49;12.32;;;4.00;;
72891;SDS011;61032;50.782;6.818;2023-02-01T01:33:50;12.60;;;2.80;;
72891;SDS011;61032;50.782;6.818;2023-02-01T01:34:56;6.65;;;2.35;;
72891;SDS011;61032;50.782;6.818;2023-02-01T01:35:56;7.15;;;2.80;;
72891;SDS011;61032;50.782;6.818;2023-02-01T01:36:56;9.75;;;3.20;;
72891;SDS011;61032;50.782;6.818;2023-02-01T01:37:57;10.30;;;3.10;;
72891;SDS011;61032;50.782;6.818;2023-02-01T01:39:00;4.65;;;2.30;;
72891;SDS011;61032;50.782;6.818;2023-02-01T01:40:00;7.38;;;2.95;;
72891;SDS011;61032;50.782;6.818;2023-02-01T01:41:01;8.63;;;2.53;;
72891;SDS011;61032;50.782;6.818;2023-02-01T01:42:01;6.15;;;3.00;;
72891;SDS011;61032;50.782;6.818;2023-02-01T01:43:02;7.40;;;2.17;;
72891;SDS011;61032;50.782;6.818;2023-02-01T01:44:05;11.68;;;3.17;;
72891;SDS011;61032;50.782;6.818;2023-02-01T01:45:30;10.55;;;3.88;;
72891;SDS011;61032;50.782;6.818;2023-02-01T01:46:34;6.95;;;2.70;;
72891;SDS011;61032;50.782;6.818;2023-02-01T01:47:38;8.68;;;3.00;;
72891;SDS011;61032;50.782;6.818;2023-02-01T01:48:59;9.73;;;2.78;;
72891;SDS011;61032;50.782;6.818;2023-02-01T01:50:08;8.80;;;3.00;;
72891;SDS011;61032;50.782;6.818;2023-02-01T01:51:12;8.73;;;3.22;;
72891;SDS011;61032;50.782;6.818;2023-02-01T01:52:17;11.70;;;2.80;;
72891;SDS011;61032;50.782;6.818;2023-02-01T01:53:20;8.80;;;3.17;;
72891;SDS011;61032;50.782;6.818;2023-02-01T01:54:40;10.18;;;2.60;;
72891;SDS011;61032;50.782;6.818;2023-02-01T01:55:45;6.78;;;2.65;;
72891;SDS011;61032;50.782;6.818;2023-02-01T01:56:48;6.05;;;2.53;;
72891;SDS011;61032;50.782;6.818;2023-02-01T01:58:00;6.85;;;2.40;;
72891;SDS011;61032;50.782;6.818;2023-02-01T01:59:07;9.30;;;3.33;;
72891;SDS011;61032;50.782;6.818;2023-02-01T02:00:11;10.25;;;2.85;;
72891;SDS011;61032;50.782;6.818;2023-02-01T02:01:14;13.85;;;2.80;;
72891;SDS011;61032;50.782;6.818;2023-02-01T02:02:16;8.88;;;3.13;;
72891;SDS011;61032;50.782;6.818;2023-02-01T02:03:18;10.05;;;2.33;;
72891;SDS011;61032;50.782;6.818;2023-02-01T02:04:21;10.85;;;3.88;;
72891;SDS011;61032;50.782;6.818;2023-02-01T02:05:23;12.55;;;3.13;;
72891;SDS011;61032;50.782;6.818;2023-02-01T02:06:30;6.55;;;3.00;;
72891;SDS011;61032;50.782;6.818;2023-02-01T02:07:33;8.57;;;2.42;;
72891;SDS011;61032;50.782;6.818;2023-02-01T02:08:36;9.48;;;4.03;;
72891;SDS011;61032;50.782;6.818;2023-02-01T02:09:37;9.88;;;2.90;;
72891;SDS011;61032;50.782;6.818;2023-02-01T02:10:38;7.65;;;2.83;;
72891;SDS011;61032;50.782;6.818;2023-02-01T02:11:57;7.45;;;2.85;;
72891;SDS011;61032;50.782;6.818;2023-02-01T02:12:58;7.25;;;3.50;;
72891;SDS011;61032;50.782;6.818;2023-02-01T02:13:58;8.98;;;3.28;;
72891;SDS011;61032;50.782;6.818;2023-02-01T02:15:00;10.32;;;3.63;;
72891;SDS011;61032;50.782;6.818;2023-02-01T02:18:42;11.18;;;3.17;;
72891;SDS011;61032;50.782;6.818;2023-02-01T02:34:25;12.95;;;3.38;;
72891;SDS011;61032;50.782;6.818;2023-02-01T02:41:13;6.45;;;2.85;;
72891;SDS011;61032;50.782;6.818;2023-02-01T02:42:53;13.13;;;3.03;;
72891;SDS011;61032;50.782;6.818;2023-02-01T02:46:09;10.80;;;3.92;;
72891;SDS011;61032;50.782;6.818;2023-02-01T02:47:43;18.67;;;3.20;;
72891;SDS011;61032;50.782;6.818;2023-02-01T02:48:55;11.43;;;3.88;;
72891;SDS011;61032;50.782;6.818;2023-02-01T02:51:41;8.18;;;2.90;;
72891;SDS011;61032;50.782;6.818;2023-02-01T02:53:10;11.25;;;2.70;;
72891;SDS011;61032;50.782;6.818;2023-02-01T02:54:35;13.68;;;2.92;;
72891;SDS011;61032;50.782;6.818;2023-02-01T02:55:50;9.60;;;3.13;;
72891;SDS011;61032;50.782;6.818;2023-02-01T02:56:52;6.43;;;2.40;;
72891;SDS011;61032;50.782;6.818;2023-02-01T02:58:12;11.57;;;2.75;;
72891;SDS011;61032;50.782;6.818;2023-02-01T02:59:33;12.32;;;2.92;;
72891;SDS011;61032;50.782;6.818;2023-02-01T03:00:59;6.03;;;2.60;;
72891;SDS011;61032;50.782;6.818;2023-02-01T03:02:19;14.88;;;2.45;;
72891;SDS011;61032;50.782;6.818;2023-02-01T03:03:40;9.98;;;2.50;;
72891;SDS011;61032;50.782;6.818;2023-02-01T03:05:00;10.80;;;2.92;;
72891;SDS011;61032;50.782;6.818;2023-02-01T03:06:01;6.50;;;2.45;;
72891;SDS011;61032;50.782;6.818;2023-02-01T03:07:45;9.73;;;3.42;;
72891;SDS011;61032;50.782;6.818;2023-02-01T03:08:44;7.00;;;2.10;;
72891;SDS011;61032;50.782;6.818;2023-02-01T03:09:46;8.27;;;2.22;;
72891;SDS011;61032;50.782;6.818;2023-02-01T03:11:00;11.73;;;2.85;;
72891;SDS011;61032;50.782;6.818;2023-02-01T03:12:12;6.65;;;2.38;;
72891;SDS011;61032;50.782;6.818;2023-02-01T03:14:53;8.32;;;3.00;;
72891;SDS011;61032;50.782;6.818;2023-02-01T03:15:59;7.47;;;2.55;;
72891;SDS011;61032;50.782;6.818;2023-02-01T03:17:07;10.80;;;2.55;;
72891;SDS011;61032;50.782;6.818;2023-02-01T03:18:15;8.45;;;2.65;;
72891;SDS011;61032;50.782;6.818;2023-02-01T03:19:19;10.02;;;2.92;;
72891;SDS011;61032;50.782;6.818;2023-02-01T03:20:26;8.63;;;2.35;;
72891;SDS011;61032;50.782;6.818;2023-02-01T03:21:31;13.70;;;3.85;;
72891;SDS011;61032;50.782;6.818;2023-02-01T03:22:32;9.70;;;2.92;;
72891;SDS011;61032;50.782;6.818;2023-02-01T03:23:36;7.57;;;2.30;;
72891;SDS011;61032;50.782;6.818;2023-02-01T03:24:41;9.27;;;2.63;;
72891;SDS011;61032;50.782;6.818;2023-02-01T03:25:47;8.93;;;2.63;;
72891;SDS011;61032;50.782;6.818;2023-02-01T03:26:55;5.90;;;2.20;;
72891;SDS011;61032;50.782;6.818;2023-02-01T03:28:02;10.50;;;2.40;;
72891;SDS011;61032;50.782;6.818;2023-02-01T03:29:08;8.13;;;2.63;;
72891;SDS011;61032;50.782;6.818;2023-02-01T03:31:28;8.13;;;2.47;;
72891;SDS011;61032;50.782;6.818;2023-02-01T03:32:29;7.78;;;2.53;;
72891;SDS011;61032;50.782;6.818;2023-02-01T03:33:49;8.43;;;3.05;;
72891;SDS011;61032;50.782;6.818;2023-02-01T03:34:50;13.25;;;2.75;;
72891;SDS011;61032;50.782;6.818;2023-02-01T03:37:27;9.80;;;2.45;;
72891;SDS011;61032;50.782;6.818;2023-02-01T03:38:32;7.85;;;2.47;;
72891;SDS011;61032;50.782;6.818;2023-02-01T03:42:17;9.52;;;2.40;;
72891;SDS011;61032;50.782;6.818;2023-02-01T03:44:01;13.50;;;3.08;;
72891;SDS011;61032;50.782;6.818;2023-02-01T03:46:22;8.90;;;2.42;;
72891;SDS011;61032;50.782;6.818;2023-02-01T03:47:34;12.82;;;2.83;;
72891;SDS011;61032;50.782;6.818;2023-02-01T03:48:37;12.07;;;2.80;;
72891;SDS011;61032;50.782;6.818;2023-02-01T03:49:43;11.25;;;3.17;;
72891;SDS011;61032;50.782;6.818;2023-02-01T03:51:04;8.30;;;2.47;;
72891;SDS011;61032;50.782;6.818;2023-02-01T03:52:11;9.32;;;2.63;;
72891;SDS011;61032;50.782;6.818;2023-02-01T03:53:18;10.88;;;2.67;;
72891;SDS011;61032;50.782;6.818;2023-02-01T03:54:22;10.20;;;2.70;;
72891;SDS011;61032;50.782;6.818;2023-02-01T03:55:25;13.02;;;3.95;;
72891;SDS011;61032;50.782;6.818;2023-02-01T03:56:30;9.75;;;3.30;;
72891;SDS011;61032;50.782;6.818;2023-02-01T03:57:34;9.15;;;2.90;;
72891;SDS011;61032;50.782;6.818;2023-02-01T03:58:54;10.68;;;2.65;;
72891;SDS011;61032;50.782;6.818;2023-02-01T04:00:09;15.85;;;3.45;;
72891;SDS011;61032;50.782;6.818;2023-02-01T04:01:30;9.73;;;2.55;;
72891;SDS011;61032;50.782;6.818;2023-02-01T04:02:31;11.73;;;3.72;;
72891;SDS011;61032;50.782;6.818;2023-02-01T04:03:31;10.52;;;3.58;;
72891;SDS011;61032;50.782;6.818;2023-02-01T04:04:32;12.23;;;3.58;;
72891;SDS011;61032;50.782;6.818;2023-02-01T04:05:34;7.60;;;2.75;;
72891;SDS011;61032;50.782;6.818;2023-02-01T04:06:34;11.68;;;3.63;;
72891;SDS011;61032;50.782;6.818;2023-02-01T04:07:34;10.18;;;2.78;;
72891;SDS011;61032;50.782;6.818;2023-02-01T04:08:35;10.15;;;3.28;;
72891;SDS011;61032;50.782;6.818;2023-02-01T04:09:35;12.45;;;3.20;;
72891;SDS011;61032;50.782;6.818;2023-02-01T04:10:36;10.90;;;2.85;;
72891;SDS011;61032;50.782;6.818;2023-02-01T04:11:36;12.20;;;3.10;;
72891;SDS011;61032;50.782;6.818;2023-02-01T04:12:36;21.70;;;3.33;;
72891;SDS011;61032;50.782;6.818;2023-02-01T04:13:37;12.07;;;3.25;;
72891;SDS011;61032;50.782;6.818;2023-02-01T04:14:37;12.35;;;3.72;;
72891;SDS011;61032;50.782;6.818;2023-02-01T04:15:37;13.32;;;3.67;;
72891;SDS011;61032;50.782;6.818;2023-02-01T04:16:38;8.55;;;3.05;;
72891;SDS011;61032;50.782;6.818;2023-02-01T04:17:38;9.52;;;3.35;;
72891;SDS011;61032;50.782;6.818;2023-02-01T04:18:38;8.27;;;2.60;;
72891;SDS011;61032;50.782;6.818;2023-02-01T04:19:39;10.02;;;3.20;;
72891;SDS011;61032;50.782;6.818;2023-02-01T04:20:40;7.63;;;2.85;;
72891;SDS011;61032;50.782;6.818;2023-02-01T04:21:40;10.50;;;3.13;;
72891;SDS011;61032;50.782;6.818;2023-02-01T04:22:40;5.47;;;2.25;;
72891;SDS011;61032;50.782;6.818;2023-02-01T04:23:40;10.30;;;3.03;;
72891;SDS011;61032;50.782;6.818;2023-02-01T04:24:41;13.50;;;2.88;;
72891;SDS011;61032;50.782;6.818;2023-02-01T04:25:41;9.77;;;2.38;;
72891;SDS011;61032;50.782;6.818;2023-02-01T04:26:41;10.40;;;2.60;;
72891;SDS011;61032;50.782;6.818;2023-02-01T04:27:43;10.50;;;2.63;;
72891;SDS011;61032;50.782;6.818;2023-02-01T04:28:43;13.48;;;3.38;;
72891;SDS011;61032;50.782;6.818;2023-02-01T04:29:43;10.63;;;2.72;;
72891;SDS011;61032;50.782;6.818;2023-02-01T04:30:45;16.92;;;2.95;;
72891;SDS011;61032;50.782;6.818;2023-02-01T04:31:45;11.23;;;3.20;;
72891;SDS011;61032;50.782;6.818;2023-02-01T04:32:46;10.73;;;2.72;;
72891;SDS011;61032;50.782;6.818;2023-02-01T04:33:46;5.65;;;2.35;;
72891;SDS011;61032;50.782;6.818;2023-02-01T04:34:46;13.07;;;2.50;;
72891;SDS011;61032;50.782;6.818;2023-02-01T04:35:47;10.27;;;3.47;;
72891;SDS011;61032;50.782;6.818;2023-02-01T04:36:48;7.85;;;3.10;;
72891;SDS011;61032;50.782;6.818;2023-02-01T04:37:48;8.25;;;2.58;;
72891;SDS011;61032;50.782;6.818;2023-02-01T04:38:49;8.70;;;2.88;;
72891;SDS011;61032;50.782;6.818;2023-02-01T04:39:52;11.18;;;3.17;;
72891;SDS011;61032;50.782;6.818;2023-02-01T04:40:54;7.68;;;2.42;;
72891;SDS011;61032;50.782;6.818;2023-02-01T04:41:59;10.32;;;3.00;;
72891;SDS011;61032;50.782;6.818;2023-02-01T04:43:02;7.75;;;2.65;;
72891;SDS011;61032;50.782;6.818;2023-02-01T04:44:03;9.35;;;2.20;;
72891;SDS011;61032;50.782;6.818;2023-02-01T04:45:14;10.30;;;2.58;;
72891;SDS011;61032;50.782;6.818;2023-02-01T04:46:18;7.80;;;2.40;;
72891;SDS011;61032;50.782;6.818;2023-02-01T04:47:19;11.07;;;2.35;;
72891;SDS011;61032;50.782;6.818;2023-02-01T04:48:22;9.02;;;3.35;;
72891;SDS011;61032;50.782;6.818;2023-02-01T04:49:23;7.78;;;2.33;;
72891;SDS011;61032;50.782;6.818;2023-02-01T04:50:25;7.00;;;2.25;;
72891;SDS011;61032;50.782;6.818;2023-02-01T04:51:25;10.23;;;2.65;;
72891;SDS011;61032;50.782;6.818;2023-02-01T04:52:26;5.97;;;2.00;;
72891;SDS011;61032;50.782;6.818;2023-02-01T04:53:28;8.05;;;2.30;;
72891;SDS011;61032;50.782;6.818;2023-02-01T04:54:32;7.22;;;2.25;;
72891;SDS011;61032;50.782;6.818;2023-02-01T04:55:32;10.98;;;2.95;;
72891;SDS011;61032;50.782;6.818;2023-02-01T04:56:33;10.52;;;2.47;;
72891;SDS011;61032;50.782;6.818;2023-02-01T04:57:37;7.60;;;2.50;;
72891;SDS011;61032;50.782;6.818;2023-02-01T04:58:38;11.82;;;2.40;;
72891;SDS011;61032;50.782;6.818;2023-02-01T04:59:39;8.93;;;2.40;;
72891;SDS011;61032;50.782;6.818;2023-02-01T05:00:39;7.68;;;2.58;;
72891;SDS011;61032;50.782;6.818;2023-02-01T05:01:39;8.38;;;2.75;;
72891;SDS011;61032;50.782;6.818;2023-02-01T05:02:40;9.98;;;2.88;;
72891;SDS011;61032;50.782;6.818;2023-02-01T05:03:40;12.38;;;2.53;;
72891;SDS011;61032;50.782;6.818;2023-02-01T05:04:40;5.93;;;2.10;;
72891;SDS011;61032;50.782;6.818;2023-02-01T05:05:41;5.93;;;2.17;;
72891;SDS011;61032;50.782;6.818;2023-02-01T05:06:41;11.13;;;2.55;;
72891;SDS011;61032;50.782;6.818;2023-02-01T05:07:41;10.93;;;2.53;;
72891;SDS011;61032;50.782;6.818;2023-02-01T05:08:42;9.02;;;2.45;;
72891;SDS011;61032;50.782;6.818;2023-02-01T05:09:42;10.63;;;2.20;;
72891;SDS011;61032;50.782;6.818;2023-02-01T05:10:44;10.15;;;2.55;;
72891;SDS011;61032;50.782;6.818;2023-02-01T05:11:44;10.48;;;2.33;;
72891;SDS011;61032;50.782;6.818;2023-02-01T05:13:03;14.45;;;1.73;;
72891;SDS011;61032;50.782;6.818;2023-02-01T05:14:22;5.78;;;2.35;;
72891;SDS011;61032;50.782;6.818;2023-02-01T05:15:23;9.23;;;2.22;;
72891;SDS011;61032;50.782;6.818;2023-02-01T05:16:23;6.43;;;1.85;;
72891;SDS011;61032;50.782;6.818;2023-02-01T05:17:23;9.60;;;3.20;;
72891;SDS011;61032;50.782;6.818;2023-02-01T05:18:24;7.72;;;2.40;;
72891;SDS011;61032;50.782;6.818;2023-02-01T05:19:24;12.13;;;2.22;;
72891;SDS011;61032;50.782;6.818;2023-02-01T05:20:24;7.43;;;2.10;;
72891;SDS011;61032;50.782;6.818;2023-02-01T05:21:25;8.80;;;1.65;;
72891;SDS011;61032;50.782;6.818;2023-02-01T05:22:25;7.20;;;2.20;;
72891;SDS011;61032;50.782;6.818;2023-02-01T05:23:25;13.50;;;2.33;;
72891;SDS011;61032;50.782;6.818;2023-02-01T05:24:26;9.90;;;2.33;;
72891;SDS011;61032;50.782;6.818;2023-02-01T05:25:27;13.68;;;2.70;;
72891;SDS011;61032;50.782;6.818;2023-02-01T05:26:27;7.45;;;1.52;;
72891;SDS011;61032;50.782;6.818;2023-02-01T05:27:28;9.10;;;2.58;;
72891;SDS011;61032;50.782;6.818;2023-02-01T05:28:30;9.75;;;1.77;;
72891;SDS011;61032;50.782;6.818;2023-02-01T05:29:30;12.50;;;2.30;;
72891;SDS011;61032;50.782;6.818;2023-02-01T05:30:31;9.15;;;2.10;;
72891;SDS011;61032;50.782;6.818;2023-02-01T05:31:35;7.25;;;1.95;;
72891;SDS011;61032;50.782;6.818;2023-02-01T05:32:35;6.95;;;1.92;;
72891;SDS011;61032;50.782;6.818;2023-02-01T05:33:36;7.07;;;2.17;;
72891;SDS011;61032;50.782;6.818;2023-02-01T05:34:36;5.00;;;1.95;;
72891;SDS011;61032;50.782;6.818;2023-02-01T05:35:37;9.35;;;1.98;;
72891;SDS011;61032;50.782;6.818;2023-02-01T05:36:37;9.50;;;1.55;;
72891;SDS011;61032;50.782;6.818;2023-02-01T05:37:37;6.47;;;1.98;;
72891;SDS011;61032;50.782;6.818;2023-02-01T05:38:38;9.10;;;2.65;;
72891;SDS011;61032;50.782;6.818;2023-02-01T05:39:38;10.50;;;1.50;;
72891;SDS011;61032;50.782;6.818;2023-02-01T05:40:38;4.88;;;1.20;;
72891;SDS011;61032;50.782;6.818;2023-02-01T05:41:38;11.35;;;2.00;;
72891;SDS011;61032;50.782;6.818;2023-02-01T05:42:39;11.45;;;1.95;;
72891;SDS011;61032;50.782;6.818;2023-02-01T05:43:43;8.95;;;2.38;;
72891;SDS011;61032;50.782;6.818;2023-02-01T05:44:44;6.28;;;1.42;;
72891;SDS011;61032;50.782;6.818;2023-02-01T05:45:44;7.35;;;1.70;;
72891;SDS011;61032;50.782;6.818;2023-02-01T05:46:45;8.68;;;1.73;;
72891;SDS011;61032;50.782;6.818;2023-02-01T05:47:45;11.57;;;2.63;;
72891;SDS011;61032;50.782;6.818;2023-02-01T05:48:45;8.48;;;2.08;;
72891;SDS011;61032;50.782;6.818;2023-02-01T05:49:46;5.05;;;1.65;;
72891;SDS011;61032;50.782;6.818;2023-02-01T05:50:46;5.43;;;2.13;;
72891;SDS011;61032;50.782;6.818;2023-02-01T05:51:46;10.75;;;2.25;;
72891;SDS011;61032;50.782;6.818;2023-02-01T05:52:47;8.20;;;1.70;;
72891;SDS011;61032;50.782;6.818;2023-02-01T05:53:47;7.80;;;1.63;;
72891;SDS011;61032;50.782;6.818;2023-02-01T05:54:48;9.93;;;1.75;;
72891;SDS011;61032;50.782;6.818;2023-02-01T05:55:48;7.80;;;1.55;;
72891;SDS011;61032;50.782;6.818;2023-02-01T05:56:49;8.52;;;1.50;;
72891;SDS011;61032;50.782;6.818;2023-02-01T05:57:49;8.65;;;1.75;;
72891;SDS011;61032;50.782;6.818;2023-02-01T05:58:49;5.38;;;1.70;;
72891;SDS011;61032;50.782;6.818;2023-02-01T05:59:50;6.75;;;1.75;;
72891;SDS011;61032;50.782;6.818;2023-02-01T06:00:50;8.73;;;1.60;;
72891;SDS011;61032;50.782;6.818;2023-02-01T06:01:50;5.80;;;1.60;;
72891;SDS011;61032;50.782;6.818;2023-02-01T06:02:51;8.50;;;1.42;;
72891;SDS011;61032;50.782;6.818;2023-02-01T06:03:51;4.30;;;1.50;;
72891;SDS011;61032;50.782;6.818;2023-02-01T06:04:51;9.80;;;1.75;;
72891;SDS011;61032;50.782;6.818;2023-02-01T06:05:51;6.95;;;1.63;;
72891;SDS011;61032;50.782;6.818;2023-02-01T06:06:52;8.95;;;2.53;;
72891;SDS011;61032;50.782;6.818;2023-02-01T06:07:52;8.15;;;1.40;;
72891;SDS011;61032;50.782;6.818;2023-02-01T06:08:53;12.20;;;2.55;;
72891;SDS011;61032;50.782;6.818;2023-02-01T06:09:53;7.32;;;1.30;;
72891;SDS011;61032;50.782;6.818;2023-02-01T06:11:12;4.43;;;1.17;;
72891;SDS011;61032;50.782;6.818;2023-02-01T06:12:13;9.35;;;1.85;;
72891;SDS011;61032;50.782;6.818;2023-02-01T06:13:13;7.85;;;1.88;;
72891;SDS011;61032;50.782;6.818;2023-02-01T06:14:14;7.45;;;2.22;;
72891;SDS011;61032;50.782;6.818;2023-02-01T06:15:14;8.68;;;2.63;;
72891;SDS011;61032;50.782;6.818;2023-02-01T06:16:18;8.93;;;1.95;;
72891;SDS011;61032;50.782;6.818;2023-02-01T06:17:18;9.98;;;2.10;;
72891;SDS011;61032;50.782;6.818;2023-02-01T06:18:18;9.50;;;2.53;;
72891;SDS011;61032;50.782;6.818;2023-02-01T06:19:19;6.90;;;1.73;;
72891;SDS011;61032;50.782;6.818;2023-02-01T06:20:19;8.30;;;1.48;;
72891;SDS011;61032;50.782;6.818;2023-02-01T06:21:20;7.30;;;1.98;;
72891;SDS011;61032;50.782;6.818;2023-02-01T06:22:23;10.25;;;1.85;;
72891;SDS011;61032;50.782;6.818;2023-02-01T06:23:23;8.65;;;2.05;;
72891;SDS011;61032;50.782;6.818;2023-02-01T06:24:24;12.10;;;2.63;;
72891;SDS011;61032;50.782;6.818;2023-02-01T06:25:24;7.05;;;1.75;;
72891;SDS011;61032;50.782;6.818;2023-02-01T06:26:25;12.35;;;2.45;;
72891;SDS011;61032;50.782;6.818;2023-02-01T06:27:25;5.10;;;1.65;;
72891;SDS011;61032;50.782;6.818;2023-02-01T06:28:26;7.75;;;2.17;;
72891;SDS011;61032;50.782;6.818;2023-02-01T06:29:28;6.30;;;1.83;;
72891;SDS011;61032;50.782;6.818;2023-02-01T06:30:28;14.10;;;2.10;;
72891;SDS011;61032;50.782;6.818;2023-02-01T06:31:30;9.25;;;2.22;;
72891;SDS011;61032;50.782;6.818;2023-02-01T06:32:32;10.18;;;2.15;;
72891;SDS011;61032;50.782;6.818;2023-02-01T06:33:33;10.52;;;2.15;;
72891;SDS011;61032;50.782;6.818;2023-02-01T06:34:34;8.65;;;2.15;;
72891;SDS011;61032;50.782;6.818;2023-02-01T06:35:34;8.07;;;2.10;;
72891;SDS011;61032;50.782;6.818;2023-02-01T06:36:34;16.60;;;1.90;;
72891;SDS011;61032;50.782;6.818;2023-02-01T06:37:36;5.70;;;1.50;;
72891;SDS011;61032;50.782;6.818;2023-02-01T06:38:36;7.00;;;1.70;;
72891;SDS011;61032;50.782;6.818;2023-02-01T06:39:38;7.07;;;2.20;;
72891;SDS011;61032;50.782;6.818;2023-02-01T06:40:39;11.05;;;1.75;;
72891;SDS011;61032;50.782;6.818;2023-02-01T06:41:42;5.97;;;2.05;;
72891;SDS011;61032;50.782;6.818;2023-02-01T06:42:47;7.78;;;1.70;;
72891;SDS011;61032;50.782;6.818;2023-02-01T06:43:48;8.00;;;1.73;;
72891;SDS011;61032;50.782;6.818;2023-02-01T06:44:55;5.60;;;1.77;;
72891;SDS011;61032;50.782;6.818;2023-02-01T06:45:59;8.65;;;2.00;;
72891;SDS011;61032;50.782;6.818;2023-02-01T06:47:04;8.27;;;2.47;;
72891;SDS011;61032;50.782;6.818;2023-02-01T06:48:04;9.35;;;2.38;;
72891;SDS011;61032;50.782;6.818;2023-02-01T06:49:05;9.98;;;1.80;;
72891;SDS011;61032;50.782;6.818;2023-02-01T06:50:05;9.45;;;2.20;;
72891;SDS011;61032;50.782;6.818;2023-02-01T06:51:14;8.13;;;2.30;;
72891;SDS011;61032;50.782;6.818;2023-02-01T06:52:20;10.13;;;2.58;;
72891;SDS011;61032;50.782;6.818;2023-02-01T06:53:20;7.28;;;1.95;;
72891;SDS011;61032;50.782;6.818;2023-02-01T06:54:21;8.07;;;2.22;;
72891;SDS011;61032;50.782;6.818;2023-02-01T06:55:21;15.10;;;3.00;;
72891;SDS011;61032;50.782;6.818;2023-02-01T06:56:22;6.35;;;2.33;;
72891;SDS011;61032;50.782;6.818;2023-02-01T06:57:23;6.78;;;2.05;;
72891;SDS011;61032;50.782;6.818;2023-02-01T06:58:23;8.98;;;2.03;;